createdAt,value
2023-04-24T00:00:43.454Z,80.15
2023-04-24T00:05:46.870Z,80.67
2023-04-24T00:10:50.165Z,80.45
2023-04-24T00:15:54.787Z,79.99
2023-04-24T00:20:58.048Z,80.20
2023-04-24T00:26:01.296Z,80.02
2023-04-24T00:31:06.208Z,80.42
2023-04-24T00:36:09.858Z,80.42
2023-04-24T00:41:13.681Z,80.23
2023-04-24T00:46:19.281Z,80.12
2023-04-24T00:51:22.695Z,80.47
2023-04-24T00:56:26.169Z,80.03
2023-04-24T01:01:31.658Z,80.34
2023-04-24T01:06:35.925Z,80.85
2023-04-24T01:11:39.752Z,80.76
2023-04-24T01:16:44.548Z,80.80
2023-04-24T01:21:49.715Z,81.48
2023-04-24T01:26:54.464Z,81.13
2023-04-24T01:31:59.759Z,81.19
2023-04-24T01:37:03.349Z,80.95
2023-04-24T01:42:09.448Z,81.53
2023-04-24T01:47:13.059Z,82.48
2023-04-24T01:52:16.288Z,82.38
2023-04-24T01:57:21.115Z,82.66
2023-04-24T02:02:25.470Z,82.44
2023-04-24T02:07:28.722Z,81.96
2023-04-24T02:12:33.402Z,81.85
2023-04-24T02:17:36.708Z,81.66
2023-04-24T02:22:40.051Z,81.41
2023-04-24T02:27:44.710Z,80.87
2023-04-24T02:32:47.939Z,81.56
2023-04-24T02:37:51.346Z,81.76
2023-04-24T02:42:56.025Z,81.66
2023-04-24T02:47:59.294Z,81.31
2023-04-24T02:53:02.700Z,80.98
2023-04-24T02:58:07.351Z,81.40
2023-04-24T03:03:10.852Z,81.35
2023-04-24T03:08:15.788Z,80.98
2023-04-24T03:13:20.479Z,80.59
2023-04-24T03:18:23.619Z,80.71
2023-04-24T03:23:26.941Z,81.26
2023-04-24T03:28:31.603Z,81.07
2023-04-24T03:33:34.815Z,81.52
2023-04-24T03:38:38.107Z,81.27
2023-04-24T03:43:42.779Z,81.33
2023-04-24T03:48:46.183Z,81.20
2023-04-24T03:53:49.542Z,81.27
2023-04-24T03:58:54.189Z,81.54
2023-04-24T04:03:57.595Z,81.13
2023-04-24T04:09:01.488Z,81.51
2023-04-24T04:14:06.465Z,81.03
2023-04-24T04:19:09.749Z,81.23
2023-04-24T04:24:13.092Z,81.51
2023-04-24T04:29:18.722Z,81.04
2023-04-24T04:34:22.366Z,81.12
2023-04-24T04:39:25.680Z,81.19
2023-04-24T04:44:31.871Z,81.11
2023-04-24T04:49:35.939Z,81.25
2023-04-24T04:54:39.214Z,81.23
2023-04-24T04:59:44.128Z,81.94
2023-04-24T05:04:47.845Z,81.91
2023-04-24T05:09:52.652Z,81.87
2023-04-24T05:14:57.259Z,81.47
2023-04-24T05:20:00.483Z,81.46
2023-04-24T05:25:03.976Z,81.52
2023-04-24T05:30:10.746Z,81.80
2023-04-24T05:35:14.224Z,81.81
2023-04-24T05:40:17.536Z,81.73
2023-04-24T05:45:22.227Z,81.80
2023-04-24T05:50:25.802Z,81.69
2023-04-24T05:55:29.397Z,82.15
2023-04-24T06:00:35.031Z,82.02
2023-04-24T06:05:38.549Z,82.01
2023-04-24T06:10:42.494Z,81.48
2023-04-24T06:15:47.572Z,81.92
2023-04-24T06:20:51.043Z,81.61
2023-04-24T06:26:00.451Z,82.05
2023-04-24T06:31:05.386Z,82.41
2023-04-24T06:36:09.371Z,82.26
2023-04-24T06:41:12.586Z,81.97
2023-04-24T06:46:17.797Z,81.62
2023-04-24T06:51:21.298Z,82.24
2023-04-24T06:56:24.872Z,81.68
2023-04-24T10:45:18.381Z,60.89
2023-04-24T10:50:22.045Z,61.31
2023-04-24T10:55:49.935Z,60.37
2023-04-24T11:01:00.355Z,59.61
2023-04-24T11:06:05.371Z,59.47
2023-04-24T11:11:13.205Z,58.97
2023-04-24T11:16:23.711Z,59.98
2023-04-24T11:21:27.428Z,56.85
2023-04-24T11:26:33.649Z,57.56
2023-04-24T11:31:39.617Z,59.32
2023-04-24T11:36:45.588Z,59.12
2023-04-24T11:41:49.218Z,61.31
2023-04-24T11:46:53.921Z,61.14
2023-04-24T11:51:59.715Z,61.23
2023-04-24T11:57:08.206Z,59.06
2023-04-24T12:02:23.010Z,59.66
2023-04-24T12:07:26.664Z,61.03
2023-04-24T12:12:30.564Z,59.60
2023-04-24T12:17:37.681Z,59.08
2023-04-24T12:22:48.225Z,59.64
2023-04-24T12:27:55.948Z,58.54
2023-04-24T12:33:02.576Z,58.43
2023-04-24T12:38:09.451Z,57.93
2023-04-24T12:43:17.640Z,56.71
2023-04-24T12:48:23.441Z,56.18
2023-04-24T12:53:27.778Z,55.64
2023-04-24T12:58:30.958Z,54.38
2023-04-24T13:03:35.688Z,53.43
2023-04-24T13:08:38.941Z,50.78
2023-04-24T13:13:42.376Z,51.34
2023-04-24T13:18:47.030Z,52.59
2023-04-24T13:23:50.676Z,51.92
2023-04-24T13:28:53.770Z,51.89
2023-04-24T13:33:58.391Z,53.17
2023-04-24T13:39:01.573Z,53.47
2023-04-24T13:44:05.096Z,53.79
2023-04-24T13:49:09.751Z,52.65
2023-04-24T13:54:13.059Z,51.62
2023-04-24T13:59:21.245Z,51.31
2023-04-24T14:04:26.031Z,51.85
2023-04-24T14:09:29.397Z,52.14
2023-04-24T14:14:32.662Z,51.27
2023-04-24T14:19:37.198Z,52.43
2023-04-24T14:24:40.349Z,52.37
2023-04-24T14:29:43.456Z,51.78
2023-04-24T14:34:47.986Z,52.29
2023-04-24T14:40:04.629Z,50.75
2023-04-24T14:45:14.245Z,50.18
2023-04-24T14:50:19.144Z,49.87
2023-04-24T14:55:22.370Z,50.18
2023-04-24T15:00:25.930Z,49.77
2023-04-24T15:05:31.566Z,50.08
2023-04-24T15:10:35.244Z,50.08
2023-04-24T15:15:38.397Z,50.61
2023-04-24T15:20:43.491Z,50.04
2023-04-24T15:25:46.682Z,50.49
2023-04-24T15:30:49.845Z,50.82
2023-04-24T15:35:54.602Z,50.30
2023-04-24T15:40:57.798Z,50.22
2023-04-24T15:46:01.027Z,51.07
2023-04-24T15:51:05.633Z,51.32
2023-04-24T15:56:08.945Z,51.71
2023-04-24T16:01:12.144Z,51.91
2023-04-24T16:06:17.033Z,52.08
2023-04-24T16:11:20.547Z,52.62
2023-04-24T16:16:24.557Z,52.59
2023-04-24T16:21:28.946Z,53.67
2023-04-24T16:26:32.101Z,53.23
2023-04-24T16:31:35.280Z,54.68
2023-04-24T16:36:39.920Z,54.62
2023-04-24T16:41:43.128Z,54.87
2023-04-24T16:46:46.304Z,54.69
2023-04-24T16:51:50.976Z,55.15
2023-04-24T16:56:54.357Z,55.01
2023-04-24T17:01:57.515Z,55.16
2023-04-24T17:07:02.249Z,55.08
2023-04-24T17:12:05.757Z,55.40
2023-04-24T17:17:09.057Z,55.23
2023-04-24T17:22:13.661Z,55.36
2023-04-24T17:27:16.874Z,55.45
2023-04-24T17:32:20.384Z,55.73
2023-04-24T17:37:25.440Z,55.62
2023-04-24T17:42:28.712Z,55.42
2023-04-24T17:47:31.867Z,55.92
2023-04-24T17:52:36.699Z,55.70
2023-04-24T17:57:39.933Z,55.65
2023-04-24T18:02:43.326Z,56.46
2023-04-24T18:07:48.011Z,57.18
2023-04-24T18:12:52.200Z,57.18
2023-04-24T18:17:55.649Z,57.80
2023-04-24T18:23:02.291Z,58.56
2023-04-24T18:28:06.704Z,58.45
2023-04-24T18:33:10.008Z,58.78
2023-04-24T18:38:14.751Z,59.31
2023-04-24T18:43:18.217Z,59.31
2023-04-24T18:48:21.584Z,59.56
2023-04-24T18:53:26.245Z,59.83
2023-04-24T18:58:29.427Z,59.84
2023-04-24T19:03:32.903Z,60.08
2023-04-24T19:08:38.784Z,61.15
2023-04-24T19:13:42.150Z,61.45
2023-04-24T19:18:45.496Z,61.72
2023-04-24T19:23:50.727Z,61.87
2023-04-24T19:28:57.803Z,62.33
2023-04-24T19:34:01.034Z,62.76
2023-04-24T19:39:05.837Z,63.41
2023-04-24T19:44:09.148Z,63.76
2023-04-24T19:49:13.423Z,64.01
2023-04-24T19:54:20.243Z,64.82
2023-04-24T19:59:23.520Z,64.94
2023-04-24T20:04:27.065Z,65.51
2023-04-24T20:09:33.021Z,65.91
2023-04-24T20:14:36.342Z,65.77
2023-04-24T20:19:41.212Z,65.65
2023-04-24T20:24:46.137Z,66.56
2023-04-24T20:29:49.634Z,66.34
2023-04-24T20:34:52.919Z,66.74
2023-04-24T20:39:58.549Z,67.17
2023-04-24T20:45:02.057Z,67.22
2023-04-24T20:50:06.580Z,67.48
2023-04-24T20:55:11.379Z,68.64
2023-04-24T21:00:16.258Z,68.43
2023-04-24T21:17:49.319Z,69.03
2023-04-24T21:23:01.759Z,69.25
2023-04-24T21:28:05.634Z,69.68
2023-04-24T21:33:10.370Z,69.68
2023-04-24T21:38:19.946Z,69.88
2023-04-24T21:43:37.196Z,70.13
2023-04-24T21:48:42.042Z,70.93
2023-04-24T21:53:45.032Z,71.33
2023-04-24T21:58:48.606Z,70.94
2023-04-24T22:03:53.754Z,71.33
2023-04-24T22:08:57.451Z,71.43
2023-04-24T22:14:00.732Z,71.15
2023-04-24T22:19:05.579Z,71.38
2023-04-24T22:24:09.156Z,71.64
2023-04-24T22:29:13.037Z,71.40
2023-04-24T22:34:18.656Z,71.93
2023-04-24T22:39:21.983Z,72.15
2023-04-24T22:44:25.243Z,71.83
2023-04-24T22:49:30.329Z,72.84
2023-04-24T22:54:34.959Z,72.63
2023-04-24T22:59:38.225Z,71.96
2023-04-24T23:04:42.887Z,72.17
2023-04-24T23:09:45.894Z,72.49
2023-04-24T23:14:49.188Z,72.97
2023-04-24T23:19:53.779Z,72.51
2023-04-24T23:24:57.084Z,72.96
2023-04-24T23:30:00.329Z,73.54
2023-04-24T23:35:05.079Z,73.23
2023-04-24T23:40:10.304Z,73.62
2023-04-24T23:45:13.624Z,73.26
2023-04-24T23:50:18.278Z,73.29
2023-04-24T23:55:21.494Z,74.03
